createdAt,value
2024-04-19T00:02:17.200Z,8.26
2024-04-19T00:04:43.836Z,8.22
2024-04-19T00:07:10.436Z,8.18
2024-04-19T00:09:46.426Z,8.11
2024-04-19T00:12:13.978Z,8.06
2024-04-19T00:14:40.848Z,8.03
2024-04-19T00:17:07.554Z,8.02
2024-04-19T00:19:34.153Z,8.01
2024-04-19T00:22:00.776Z,8.00
2024-04-19T00:24:27.391Z,7.98
2024-04-19T00:26:54.112Z,7.97
2024-04-19T00:29:40.653Z,7.95
2024-04-19T00:32:07.713Z,7.94
2024-04-19T00:34:34.562Z,7.93
2024-04-19T00:37:01.459Z,7.92
2024-04-19T00:39:28.200Z,7.90
2024-04-19T00:41:54.919Z,7.87
2024-04-19T00:44:21.671Z,7.84
2024-04-19T00:46:48.650Z,7.81
2024-04-19T00:49:32.340Z,7.76
2024-04-19T00:52:00.031Z,7.72
2024-04-19T00:54:26.757Z,7.64
2024-04-19T00:56:53.792Z,7.59
2024-04-19T00:59:20.837Z,7.56
2024-04-19T01:01:47.736Z,7.53
2024-04-19T01:04:15.140Z,7.54
2024-04-19T01:06:41.953Z,7.53
2024-04-19T01:09:08.836Z,7.52
2024-04-19T01:11:35.779Z,7.53
2024-04-19T01:14:02.491Z,7.54
2024-04-19T01:16:29.272Z,7.53
2024-04-19T01:18:56.049Z,7.52
2024-04-19T01:21:23.251Z,7.51
2024-04-19T01:23:54.724Z,7.48
2024-04-19T01:26:21.441Z,7.46
2024-04-19T01:28:48.162Z,7.41
2024-04-19T01:31:14.899Z,7.38
2024-04-19T01:33:41.672Z,7.37
2024-04-19T01:36:08.666Z,7.34
2024-04-19T01:38:47.639Z,7.34
2024-04-19T01:41:14.561Z,7.31
2024-04-19T01:43:43.546Z,7.29
2024-04-19T01:46:10.300Z,7.26
2024-04-19T01:48:37.079Z,7.24
2024-04-19T01:51:03.973Z,7.20
2024-04-19T01:53:33.102Z,7.17
2024-04-19T01:55:59.941Z,7.13
2024-04-19T01:58:41.818Z,7.10
2024-04-19T02:01:09.025Z,7.07
2024-04-19T02:03:35.967Z,7.02
2024-04-19T02:06:13.553Z,6.99
2024-04-19T02:08:40.610Z,6.97
2024-04-19T02:11:07.434Z,6.97
2024-04-19T02:13:34.492Z,6.99
2024-04-19T02:16:01.592Z,7.01
2024-04-19T02:18:28.574Z,7.03
2024-04-19T02:20:55.411Z,7.04
2024-04-19T02:23:41.982Z,7.04
2024-04-19T02:26:09.740Z,7.04
2024-04-19T02:28:57.884Z,7.04
2024-04-19T02:31:24.870Z,7.03
2024-04-19T02:33:51.682Z,7.04
2024-04-19T02:36:18.596Z,7.02
2024-04-19T02:38:45.389Z,7.02
2024-04-19T02:41:12.135Z,7.03
2024-04-19T02:43:38.873Z,7.04
2024-04-19T02:46:06.755Z,7.04
2024-04-19T02:48:34.186Z,7.03
2024-04-19T02:51:02.560Z,6.99
2024-04-19T02:53:29.281Z,6.99
2024-04-19T02:55:56.636Z,6.97
2024-04-19T02:58:23.398Z,6.95
2024-04-19T03:00:50.205Z,6.92
2024-04-19T03:03:17.195Z,6.89
2024-04-19T03:05:45.241Z,6.86
2024-04-19T03:08:11.974Z,6.82
2024-04-19T03:10:39.543Z,6.81
2024-04-19T03:13:09.480Z,6.83
2024-04-19T03:15:36.459Z,6.82
2024-04-19T03:18:05.941Z,6.79
2024-04-19T03:20:32.660Z,6.81
2024-04-19T03:22:59.372Z,6.83
2024-04-19T03:25:26.054Z,6.84
2024-04-19T03:27:53.191Z,6.83
2024-04-19T03:30:27.489Z,6.85
2024-04-19T03:32:54.535Z,6.83
2024-04-19T03:35:21.454Z,6.80
2024-04-19T03:37:48.158Z,6.76
2024-04-19T03:40:15.060Z,6.77
2024-04-19T03:42:47.144Z,6.79
2024-04-19T03:45:32.498Z,6.81
2024-04-19T03:47:59.402Z,6.81
2024-04-19T03:50:26.092Z,6.80
2024-04-19T03:52:57.959Z,6.81
2024-04-19T03:55:25.430Z,6.79
2024-04-19T03:57:52.383Z,6.77
2024-04-19T04:00:22.730Z,6.74
2024-04-19T04:02:53.821Z,6.71
2024-04-19T04:05:20.574Z,6.69
2024-04-19T04:07:47.194Z,6.68
2024-04-19T04:10:13.930Z,6.70
2024-04-19T04:12:40.802Z,6.73
2024-04-19T04:15:08.545Z,6.75
2024-04-19T04:17:35.842Z,6.78
2024-04-19T04:20:04.577Z,6.83
2024-04-19T04:22:31.187Z,6.85
2024-04-19T04:24:57.934Z,6.86
2024-04-19T04:27:24.920Z,6.86
2024-04-19T04:29:51.720Z,6.88
2024-04-19T04:32:18.477Z,6.91
2024-04-19T04:34:45.441Z,6.97
2024-04-19T04:37:12.142Z,7.03
2024-04-19T04:39:38.918Z,7.08
2024-04-19T04:42:06.443Z,7.12
2024-04-19T04:44:34.260Z,7.17
2024-04-19T04:47:01.327Z,7.20
2024-04-19T04:49:28.344Z,7.24
2024-04-19T04:51:55.175Z,7.27
2024-04-19T04:54:22.043Z,7.30
2024-04-19T04:56:48.955Z,7.33
2024-04-19T04:59:15.602Z,7.37
2024-04-19T05:01:42.307Z,7.45
2024-04-19T05:04:09.933Z,7.50
2024-04-19T05:06:37.170Z,7.54
2024-04-19T05:09:04.571Z,7.56
2024-04-19T05:11:31.409Z,7.61
2024-04-19T05:13:58.131Z,7.65
2024-04-19T05:16:24.899Z,7.69
2024-04-19T05:18:52.693Z,7.75
2024-04-19T05:21:19.562Z,7.78
2024-04-19T05:23:47.416Z,7.83
2024-04-19T05:26:14.215Z,7.87
2024-04-19T05:28:41.170Z,7.90
2024-04-19T05:31:07.858Z,7.94
2024-04-19T05:33:37.854Z,7.98
2024-04-19T05:36:05.477Z,8.02
2024-04-19T05:38:32.312Z,8.10
2024-04-19T05:40:59.056Z,8.16
2024-04-19T05:43:25.793Z,8.22
2024-04-19T05:45:53.341Z,8.28
2024-04-19T05:48:22.238Z,8.34
2024-04-19T05:50:49.415Z,8.40
2024-04-19T05:53:16.199Z,8.48
2024-04-19T05:55:45.144Z,8.56
2024-04-19T05:58:12.202Z,8.63
2024-04-19T06:00:39.442Z,8.70
2024-04-19T06:03:06.305Z,8.79
2024-04-19T06:05:33.203Z,8.87
2024-04-19T06:08:00.049Z,8.91
2024-04-19T06:10:26.884Z,8.95
2024-04-19T06:12:54.386Z,8.98
2024-04-19T06:15:21.332Z,9.02
2024-04-19T06:17:49.503Z,9.04
2024-04-19T06:20:16.405Z,9.09
2024-04-19T06:22:43.082Z,9.30
2024-04-19T06:25:10.094Z,9.60
2024-04-19T06:27:36.751Z,9.88
2024-04-19T06:30:03.989Z,10.15
2024-04-19T06:32:30.750Z,10.33
2024-04-19T06:34:57.664Z,10.40
2024-04-19T06:37:25.431Z,10.40
2024-04-19T06:39:59.460Z,10.42
2024-04-19T06:42:32.333Z,10.42
2024-04-19T06:44:58.990Z,10.42
2024-04-19T06:47:25.674Z,10.39
2024-04-19T06:49:52.343Z,10.35
2024-04-19T06:52:19.075Z,10.33
2024-04-19T06:54:45.868Z,10.32
2024-04-19T06:57:15.095Z,10.31
2024-04-19T06:59:43.329Z,10.30
2024-04-19T07:02:10.410Z,10.32
2024-04-19T07:04:37.276Z,10.35
2024-04-19T07:07:04.416Z,10.37
2024-04-19T07:09:31.527Z,10.41
2024-04-19T07:11:58.250Z,10.46
2024-04-19T07:14:25.273Z,10.49
2024-04-19T07:16:55.735Z,10.51
2024-04-19T07:19:22.876Z,10.54
2024-04-19T07:21:49.584Z,10.58
2024-04-19T07:24:16.455Z,10.61
2024-04-19T07:26:43.370Z,10.66
2024-04-19T07:29:10.327Z,10.70
2024-04-19T07:31:37.157Z,10.73
2024-04-19T07:34:03.810Z,10.77
2024-04-19T07:36:31.006Z,10.82
2024-04-19T07:38:57.811Z,10.85
2024-04-19T07:41:24.520Z,10.88
2024-04-19T07:43:55.834Z,10.93
2024-04-19T07:46:27.533Z,10.99
2024-04-19T07:48:54.228Z,11.02
2024-04-19T07:51:20.922Z,11.06
2024-04-19T07:53:47.644Z,11.10
2024-04-19T07:56:14.797Z,11.14
2024-04-19T07:58:41.529Z,11.19
2024-04-19T08:01:08.428Z,11.24
2024-04-19T08:03:36.725Z,11.30
2024-04-19T08:06:04.410Z,11.36
2024-04-19T08:08:31.177Z,11.44
2024-04-19T08:10:57.790Z,11.51
2024-04-19T08:13:25.592Z,11.57
2024-04-19T08:15:52.423Z,11.64
2024-04-19T08:18:19.353Z,11.70
2024-04-19T08:20:46.021Z,11.76
2024-04-19T08:23:14.032Z,11.79
2024-04-19T08:25:41.538Z,11.82
2024-04-19T08:28:08.247Z,11.86
2024-04-19T08:30:34.922Z,11.89
2024-04-19T08:33:01.756Z,11.94
2024-04-19T08:35:28.464Z,11.98
2024-04-19T08:37:55.038Z,12.02
2024-04-19T08:40:22.510Z,12.04
2024-04-19T08:42:49.323Z,12.07
2024-04-19T08:45:17.328Z,12.12
2024-04-19T08:47:47.568Z,12.16
2024-04-19T08:50:17.150Z,12.22
2024-04-19T08:53:08.996Z,12.27
2024-04-19T08:55:33.888Z,12.31
2024-04-19T08:58:00.926Z,12.35
2024-04-19T09:00:27.764Z,12.40
2024-04-19T09:02:54.725Z,12.42
2024-04-19T09:05:21.779Z,12.42
2024-04-19T09:07:48.751Z,12.41
2024-04-19T09:10:21.399Z,12.44
2024-04-19T09:12:48.226Z,12.47
2024-04-19T09:15:15.298Z,12.51
2024-04-19T09:17:42.273Z,12.56
2024-04-19T09:20:09.979Z,12.64
2024-04-19T09:22:36.870Z,12.72
2024-04-19T09:25:04.504Z,12.76
2024-04-19T09:27:32.459Z,12.79
2024-04-19T09:30:02.269Z,12.87
2024-04-19T09:32:30.007Z,12.97
2024-04-19T09:34:57.061Z,13.06
2024-04-19T09:37:24.280Z,13.14
2024-04-19T09:39:53.839Z,13.22
2024-04-19T09:42:20.852Z,13.29
2024-04-19T09:44:51.767Z,13.33
2024-04-19T09:47:19.415Z,13.34
2024-04-19T09:49:47.287Z,13.38
2024-04-19T09:52:22.118Z,13.42
2024-04-19T09:55:02.589Z,13.44
2024-04-19T09:57:31.098Z,13.49
2024-04-19T09:59:58.931Z,13.52
2024-04-19T10:02:31.605Z,13.57
2024-04-19T10:05:04.027Z,13.59
2024-04-19T10:07:31.777Z,13.58
2024-04-19T10:10:00.314Z,13.59
2024-04-19T10:12:28.029Z,13.61
2024-04-19T10:14:54.657Z,13.67
2024-04-19T10:17:21.505Z,13.71
2024-04-19T10:19:52.962Z,13.77
2024-04-19T10:22:23.287Z,13.85
2024-04-19T10:25:01.701Z,13.94
2024-04-19T10:27:33.718Z,14.01
2024-04-19T10:30:01.498Z,14.06
2024-04-19T10:32:29.650Z,14.09
2024-04-19T10:34:57.178Z,14.10
2024-04-19T10:37:23.891Z,14.12
2024-04-19T10:39:50.675Z,14.16
2024-04-19T10:42:22.198Z,14.22
2024-04-19T10:44:49.959Z,14.27
2024-04-19T10:47:18.034Z,14.33
2024-04-19T10:49:45.364Z,14.42
2024-04-19T10:52:12.374Z,14.50
2024-04-19T10:54:39.105Z,14.59
2024-04-19T10:57:05.952Z,14.65
2024-04-19T10:59:32.936Z,14.69
2024-04-19T11:02:02.937Z,14.73
2024-04-19T11:04:30.108Z,14.74
2024-04-19T11:06:57.048Z,14.79
2024-04-19T11:09:24.331Z,14.89
2024-04-19T11:11:51.187Z,14.96
2024-04-19T11:14:20.265Z,15.01
2024-04-19T11:16:47.395Z,15.12
2024-04-19T11:19:17.556Z,15.23
2024-04-19T11:21:45.634Z,15.27
2024-04-19T11:24:12.384Z,15.33
2024-04-19T11:26:39.123Z,15.46
2024-04-19T11:29:07.217Z,15.60
2024-04-19T11:31:35.570Z,15.74
2024-04-19T11:34:02.520Z,15.89
2024-04-19T11:36:29.610Z,16.01
2024-04-19T11:38:57.080Z,16.06
2024-04-19T11:41:23.891Z,16.11
2024-04-19T11:43:50.486Z,16.17
2024-04-19T11:46:25.952Z,16.27
2024-04-19T11:48:52.786Z,16.49
2024-04-19T11:51:20.486Z,16.70
2024-04-19T11:53:47.290Z,16.84
2024-04-19T11:56:14.297Z,16.92
2024-04-19T11:58:41.192Z,17.06
2024-04-19T12:01:08.125Z,17.17
2024-04-19T12:03:35.288Z,17.38
2024-04-19T12:06:03.447Z,17.57
2024-04-19T12:08:30.246Z,17.76
2024-04-19T12:10:57.384Z,17.91
2024-04-19T12:16:29.749Z,18.27
2024-04-19T12:18:40.964Z,18.50
2024-04-19T12:21:08.724Z,18.67
2024-04-19T12:23:35.930Z,18.85
2024-04-19T12:26:03.351Z,19.07
2024-04-19T12:28:30.508Z,19.25
2024-04-19T12:30:58.066Z,19.35
2024-04-19T12:33:24.846Z,19.23
2024-04-19T12:35:51.572Z,19.24
2024-04-19T12:38:18.418Z,19.33
2024-04-19T12:40:45.153Z,19.42
2024-04-19T12:43:12.191Z,19.59
2024-04-19T12:45:38.978Z,19.81
2024-04-19T12:48:08.048Z,19.88
2024-04-19T12:50:38.139Z,19.92
2024-04-19T12:53:05.684Z,20.07
2024-04-19T12:55:33.176Z,20.16
2024-04-19T12:58:00.844Z,20.18
2024-04-19T13:00:29.245Z,20.21
2024-04-19T13:02:57.305Z,20.28
2024-04-19T13:05:24.634Z,20.38
2024-04-19T13:07:51.390Z,20.54
2024-04-19T13:10:22.835Z,20.70
2024-04-19T13:12:49.772Z,20.70
2024-04-19T13:15:16.918Z,20.81
2024-04-19T13:17:44.397Z,20.91
2024-04-19T13:20:11.366Z,20.98
2024-04-19T13:22:38.091Z,20.97
2024-04-19T13:25:05.925Z,20.87
2024-04-19T13:27:32.761Z,20.80
2024-04-19T13:30:00.587Z,20.84
2024-04-19T13:32:27.483Z,20.85
2024-04-19T13:34:54.166Z,20.92
2024-04-19T13:37:24.346Z,20.98
2024-04-19T13:39:51.144Z,21.01
2024-04-19T13:42:18.155Z,21.14
2024-04-19T13:44:44.968Z,21.20
2024-04-19T13:47:13.406Z,21.23
2024-04-19T13:49:41.487Z,21.36
2024-04-19T13:52:08.974Z,21.37
2024-04-19T13:54:35.740Z,21.29
2024-04-19T13:57:02.883Z,21.12
2024-04-19T13:59:29.714Z,21.20
2024-04-19T14:01:56.940Z,21.42
2024-04-19T14:04:23.853Z,21.59
2024-04-19T14:06:50.806Z,21.65
2024-04-19T14:09:17.588Z,21.73
2024-04-19T14:11:45.804Z,21.92
2024-04-19T14:14:12.524Z,22.16
2024-04-19T14:16:39.474Z,22.33
2024-04-19T14:19:06.239Z,22.40
2024-04-19T14:21:33.145Z,22.49
2024-04-19T14:23:59.857Z,22.57
2024-04-19T14:26:26.532Z,22.53
2024-04-19T14:28:53.245Z,22.61
2024-04-19T14:31:20.011Z,22.79
2024-04-19T14:33:46.856Z,22.95
2024-04-19T14:36:13.665Z,23.15
2024-04-19T14:38:40.817Z,23.24
2024-04-19T14:41:08.490Z,23.35
2024-04-19T14:43:35.558Z,23.50
2024-04-19T14:46:02.492Z,23.51
2024-04-19T14:48:29.641Z,23.40
2024-04-19T14:50:56.562Z,23.49
2024-04-19T14:53:23.205Z,23.57
2024-04-19T14:55:49.932Z,23.69
2024-04-19T14:58:16.774Z,23.72
2024-04-19T15:00:43.706Z,23.69
2024-04-19T15:03:10.585Z,23.71
2024-04-19T15:05:37.296Z,23.80
2024-04-19T15:08:10.211Z,23.85
2024-04-19T15:10:37.334Z,23.73
2024-04-19T15:13:04.808Z,23.67
2024-04-19T15:15:31.795Z,23.77
2024-04-19T15:17:59.871Z,23.87
2024-04-19T15:20:26.647Z,23.93
2024-04-19T15:22:55.256Z,23.91
2024-04-19T15:25:21.997Z,23.96
2024-04-19T15:27:48.749Z,23.97
2024-04-19T15:30:15.756Z,23.85
2024-04-19T15:32:43.402Z,23.84
2024-04-19T15:35:11.906Z,23.87
2024-04-19T15:37:38.740Z,23.88
2024-04-19T15:40:06.841Z,23.77
2024-04-19T15:42:36.713Z,23.71
2024-04-19T15:45:04.413Z,23.71
2024-04-19T15:47:31.294Z,23.65
2024-04-19T15:49:58.086Z,23.60
2024-04-19T15:52:24.807Z,23.57
2024-04-19T15:54:53.486Z,23.49
2024-04-19T15:57:20.461Z,23.25
2024-04-19T15:59:47.192Z,23.05
2024-04-19T16:02:14.576Z,22.86
2024-04-19T16:04:41.392Z,22.63
2024-04-19T16:07:08.244Z,22.36
2024-04-19T16:09:35.229Z,21.91
2024-04-19T16:12:02.007Z,21.59
2024-04-19T16:14:28.800Z,21.28
2024-04-19T16:16:55.636Z,20.97
2024-04-19T16:19:24.308Z,20.68
2024-04-19T16:21:50.931Z,20.43
2024-04-19T16:24:17.595Z,20.19
2024-04-19T16:26:44.304Z,20.02
2024-04-19T16:29:11.459Z,19.75
2024-04-19T16:31:38.543Z,19.46
2024-04-19T16:34:05.310Z,19.25
2024-04-19T16:36:32.202Z,19.14
2024-04-19T16:38:59.013Z,18.99
2024-04-19T16:41:25.753Z,18.79
2024-04-19T16:43:52.488Z,18.61
2024-04-19T16:46:19.235Z,18.42
2024-04-19T16:48:46.001Z,18.27
2024-04-19T16:51:16.179Z,18.16
2024-04-19T16:53:43.308Z,17.98
2024-04-19T16:56:10.079Z,17.83
2024-04-19T16:58:36.825Z,17.72
2024-04-19T17:01:03.664Z,17.62
2024-04-19T17:03:30.788Z,17.51
2024-04-19T17:05:57.657Z,17.43
2024-04-19T17:08:24.607Z,17.33
2024-04-19T17:10:51.447Z,17.25
2024-04-19T17:13:18.212Z,17.19
2024-04-19T17:15:45.104Z,17.10
2024-04-19T17:18:12.211Z,17.02
2024-04-19T17:20:41.356Z,16.95
2024-04-19T17:23:08.440Z,16.85
2024-04-19T17:25:35.166Z,16.73
2024-04-19T17:28:01.953Z,16.59
2024-04-19T17:30:28.972Z,16.49
2024-04-19T17:32:55.995Z,16.38
2024-04-19T17:35:22.955Z,16.28
2024-04-19T17:37:49.573Z,16.19
2024-04-19T17:40:16.434Z,16.08
2024-04-19T17:42:43.077Z,15.98
2024-04-19T17:45:09.801Z,15.89
2024-04-19T17:47:36.640Z,15.77
2024-04-19T17:50:04.957Z,15.66
2024-04-19T17:52:32.583Z,15.57
2024-04-19T17:54:59.374Z,15.50
2024-04-19T17:57:28.248Z,15.43
2024-04-19T17:59:55.046Z,15.36
2024-04-19T18:02:22.563Z,15.28
2024-04-19T18:04:49.399Z,15.20
2024-04-19T18:07:16.116Z,15.11
2024-04-19T18:09:42.866Z,15.01
2024-04-19T18:12:09.682Z,14.90
2024-04-19T18:14:36.413Z,14.82
2024-04-19T18:17:03.318Z,14.76
2024-04-19T18:19:30.227Z,14.69
2024-04-19T18:21:57.413Z,14.59
2024-04-19T18:24:28.110Z,14.52
2024-04-19T18:26:55.478Z,14.44
2024-04-19T18:29:25.557Z,14.38
2024-04-19T18:31:52.760Z,14.32
2024-04-19T18:34:21.307Z,14.27
2024-04-19T18:36:48.514Z,14.19
2024-04-19T18:39:16.300Z,14.13
2024-04-19T18:41:44.867Z,14.07
2024-04-19T18:44:12.031Z,13.99
2024-04-19T18:46:38.881Z,13.91
2024-04-19T18:49:09.475Z,13.85
2024-04-19T18:51:36.413Z,13.79
2024-04-19T18:54:03.408Z,13.71
2024-04-19T18:56:30.159Z,13.63
2024-04-19T18:58:56.810Z,13.54
2024-04-19T19:01:23.540Z,13.45
2024-04-19T19:03:50.542Z,13.38
2024-04-19T19:06:17.820Z,13.32
2024-04-19T19:08:44.544Z,13.26
2024-04-19T19:11:15.032Z,13.22
2024-04-19T19:13:44.571Z,13.20
2024-04-19T19:16:11.358Z,13.17
2024-04-19T19:18:38.305Z,13.19
2024-04-19T19:21:05.609Z,13.21
2024-04-19T19:23:32.338Z,13.22
2024-04-19T19:26:04.435Z,13.20
2024-04-19T19:28:31.480Z,13.15
2024-04-19T19:30:58.981Z,13.08
2024-04-19T19:33:26.268Z,13.01
2024-04-19T19:35:56.392Z,12.96
2024-04-19T19:38:23.884Z,12.93
2024-04-19T19:40:50.589Z,12.88
2024-04-19T19:43:19.674Z,12.81
2024-04-19T19:45:55.209Z,12.77
2024-04-19T19:48:22.004Z,12.74
2024-04-19T19:50:56.298Z,12.70
2024-04-19T19:53:22.948Z,12.67
2024-04-19T19:55:49.777Z,12.61
2024-04-19T19:58:16.510Z,12.56
2024-04-19T20:01:02.303Z,12.49
2024-04-19T20:03:47.849Z,12.44
2024-04-19T20:06:14.940Z,12.40
2024-04-19T20:08:41.757Z,12.36
2024-04-19T20:11:08.443Z,12.33
2024-04-19T20:13:35.243Z,12.27
2024-04-19T20:16:04.325Z,12.22
2024-04-19T20:18:31.410Z,12.15
2024-04-19T20:20:58.678Z,12.08
2024-04-19T20:23:25.588Z,12.02
2024-04-19T20:25:52.262Z,11.95
2024-04-19T20:28:19.084Z,11.90
2024-04-19T20:30:45.980Z,11.87
2024-04-19T20:33:12.794Z,11.84
2024-04-19T20:35:39.611Z,11.81
2024-04-19T20:38:06.474Z,11.76
2024-04-19T20:40:33.319Z,11.74
2024-04-19T20:43:14.606Z,11.71
2024-04-19T20:45:47.136Z,11.71
2024-04-19T20:48:15.923Z,11.69
2024-04-19T20:50:42.899Z,11.67
2024-04-19T20:53:09.525Z,11.63
2024-04-19T20:55:41.833Z,11.59
2024-04-19T20:58:08.504Z,11.56
2024-04-19T21:00:38.607Z,11.49
2024-04-19T21:03:05.697Z,11.44
2024-04-19T21:05:32.687Z,11.37
2024-04-19T21:07:59.353Z,11.34
2024-04-19T21:10:26.107Z,11.30
2024-04-19T21:12:53.667Z,11.27
2024-04-19T21:15:20.523Z,11.25
2024-04-19T21:17:47.173Z,11.21
2024-04-19T21:20:13.838Z,11.16
2024-04-19T21:22:40.471Z,11.16
2024-04-19T21:25:07.453Z,11.16
2024-04-19T21:27:34.977Z,11.16
2024-04-19T21:30:02.055Z,11.17
2024-04-19T21:32:31.865Z,11.17
2024-04-19T21:34:58.593Z,11.15
2024-04-19T21:37:25.371Z,11.13
2024-04-19T21:39:55.309Z,11.10
2024-04-19T21:42:23.184Z,11.08
2024-04-19T21:44:54.467Z,11.07
2024-04-19T21:47:21.395Z,11.07
2024-04-19T21:49:48.099Z,11.06
2024-04-19T21:52:17.945Z,11.05
2024-04-19T21:54:44.881Z,11.04
2024-04-19T21:57:11.571Z,11.04
2024-04-19T21:59:39.406Z,11.06
2024-04-19T22:02:06.151Z,11.08
2024-04-19T22:04:33.066Z,11.11
2024-04-19T22:07:00.106Z,11.12
2024-04-19T22:09:27.625Z,11.14
2024-04-19T22:11:54.484Z,11.15
2024-04-19T22:14:21.329Z,11.10
2024-04-19T22:16:48.213Z,11.09
2024-04-19T22:19:15.227Z,11.09
2024-04-19T22:21:42.184Z,11.09
2024-04-19T22:24:09.128Z,11.09
2024-04-19T22:26:36.144Z,11.07
2024-04-19T22:29:03.092Z,11.00
2024-04-19T22:31:29.933Z,11.00
2024-04-19T22:33:57.035Z,10.97
2024-04-19T22:36:24.770Z,10.93
2024-04-19T22:38:51.923Z,10.88
2024-04-19T22:41:19.034Z,10.86
2024-04-19T22:43:45.890Z,10.85
2024-04-19T22:46:12.929Z,10.85
2024-04-19T22:48:41.056Z,10.83
2024-04-19T22:51:08.323Z,10.82
2024-04-19T22:53:35.329Z,10.80
2024-04-19T22:56:02.471Z,10.76
2024-04-19T22:58:29.307Z,10.75
2024-04-19T23:01:07.687Z,10.74
2024-04-19T23:03:35.262Z,10.76
2024-04-19T23:06:09.665Z,10.75
2024-04-19T23:08:36.851Z,10.76
2024-04-19T23:11:04.832Z,10.76
2024-04-19T23:13:32.782Z,10.76
2024-04-19T23:15:59.657Z,10.74
2024-04-19T23:18:26.675Z,10.69
2024-04-19T23:21:01.218Z,10.66
2024-04-19T23:23:28.637Z,10.64
2024-04-19T23:26:06.536Z,10.62
2024-04-19T23:28:33.873Z,10.59
2024-04-19T23:31:01.409Z,10.56
2024-04-19T23:33:30.504Z,10.53
2024-04-19T23:36:01.314Z,10.50
2024-04-19T23:38:28.418Z,10.46
2024-04-19T23:40:55.622Z,10.40
2024-04-19T23:43:22.512Z,10.38
2024-04-19T23:45:49.620Z,10.36
2024-04-19T23:48:16.921Z,10.35
2024-04-19T23:50:43.877Z,10.31
2024-04-19T23:53:10.711Z,10.27
2024-04-19T23:55:37.749Z,10.24
2024-04-19T23:58:04.695Z,10.22
